sensor_id;sensor_type;location;lat;lon;timestamp;pressure;altitude;pressure_sealevel;temperature;humidity
70971;BME280;58632;51.718;19.446;2023-03-31T00:00:39;98555.58;;;9.92;100.00
70971;BME280;58632;51.718;19.446;2023-03-31T00:03:12;98556.85;;;9.90;100.00
70971;BME280;58632;51.718;19.446;2023-03-31T00:05:46;98556.96;;;9.88;100.00
70971;BME280;58632;51.718;19.446;2023-03-31T00:08:12;98560.86;;;9.88;100.00
70971;BME280;58632;51.718;19.446;2023-03-31T00:10:42;98563.38;;;9.92;100.00
70971;BME280;58632;51.718;19.446;2023-03-31T00:13:10;98564.03;;;9.93;100.00
70971;BME280;58632;51.718;19.446;2023-03-31T00:15:35;98561.51;;;9.92;100.00
70971;BME280;58632;51.718;19.446;2023-03-31T00:18:01;98562.25;;;9.90;100.00
70971;BME280;58632;51.718;19.446;2023-03-31T00:20:27;98564.55;;;9.89;100.00
70971;BME280;58632;51.718;19.446;2023-03-31T00:22:52;98563.09;;;9.90;100.00
70971;BME280;58632;51.718;19.446;2023-03-31T00:25:19;98562.27;;;9.88;100.00
70971;BME280;58632;51.718;19.446;2023-03-31T00:27:45;98562.34;;;9.88;100.00
70971;BME280;58632;51.718;19.446;2023-03-31T00:30:11;98559.06;;;9.88;100.00
70971;BME280;58632;51.718;19.446;2023-03-31T00:32:37;98560.31;;;9.88;100.00
70971;BME280;58632;51.718;19.446;2023-03-31T00:35:02;98563.20;;;9.88;100.00
70971;BME280;58632;51.718;19.446;2023-03-31T00:37:28;98560.33;;;9.89;100.00
70971;BME280;58632;51.718;19.446;2023-03-31T00:39:54;98557.09;;;9.88;100.00
70971;BME280;58632;51.718;19.446;2023-03-31T00:42:20;98559.11;;;9.87;100.00
70971;BME280;58632;51.718;19.446;2023-03-31T00:47:30;98554.89;;;9.84;100.00
70971;BME280;58632;51.718;19.446;2023-03-31T00:49:55;98556.46;;;9.82;100.00
70971;BME280;58632;51.718;19.446;2023-03-31T00:52:26;98548.55;;;9.81;100.00
70971;BME280;58632;51.718;19.446;2023-03-31T00:55:00;98541.63;;;9.82;100.00
70971;BME280;58632;51.718;19.446;2023-03-31T00:57:27;98541.91;;;9.83;100.00
70971;BME280;58632;51.718;19.446;2023-03-31T00:59:57;98545.14;;;9.82;100.00
70971;BME280;58632;51.718;19.446;2023-03-31T01:02:24;98543.13;;;9.77;100.00
70971;BME280;58632;51.718;19.446;2023-03-31T01:04:57;98542.61;;;9.73;100.00
70971;BME280;58632;51.718;19.446;2023-03-31T01:07:42;98538.81;;;9.71;100.00
70971;BME280;58632;51.718;19.446;2023-03-31T01:10:09;98535.29;;;9.70;100.00
70971;BME280;58632;51.718;19.446;2023-03-31T01:12:42;98532.44;;;9.69;100.00
70971;BME280;58632;51.718;19.446;2023-03-31T01:15:08;98526.20;;;9.67;100.00
70971;BME280;58632;51.718;19.446;2023-03-31T01:17:34;98529.06;;;9.63;100.00
70971;BME280;58632;51.718;19.446;2023-03-31T01:28:18;98548.98;;;9.50;100.00
70971;BME280;58632;51.718;19.446;2023-03-31T01:33:15;98556.49;;;9.48;100.00
70971;BME280;58632;51.718;19.446;2023-03-31T01:38:29;98554.58;;;9.45;100.00
70971;BME280;58632;51.718;19.446;2023-03-31T01:43:43;98553.40;;;9.44;100.00
70971;BME280;58632;51.718;19.446;2023-03-31T01:46:22;98556.66;;;9.46;100.00
70971;BME280;58632;51.718;19.446;2023-03-31T01:48:53;98561.19;;;9.44;100.00
70971;BME280;58632;51.718;19.446;2023-03-31T01:54:02;98558.77;;;9.36;100.00
70971;BME280;58632;51.718;19.446;2023-03-31T01:56:34;98554.75;;;9.32;100.00
70971;BME280;58632;51.718;19.446;2023-03-31T01:59:06;98555.70;;;9.30;100.00
70971;BME280;58632;51.718;19.446;2023-03-31T02:01:36;98557.23;;;9.29;100.00
70971;BME280;58632;51.718;19.446;2023-03-31T02:04:06;98551.70;;;9.27;100.00
70971;BME280;58632;51.718;19.446;2023-03-31T02:06:35;98551.02;;;9.27;100.00
70971;BME280;58632;51.718;19.446;2023-03-31T02:09:06;98552.81;;;9.27;100.00
70971;BME280;58632;51.718;19.446;2023-03-31T02:11:33;98554.67;;;9.27;100.00
70971;BME280;58632;51.718;19.446;2023-03-31T02:14:00;98550.49;;;9.25;100.00
70971;BME280;58632;51.718;19.446;2023-03-31T02:16:29;98554.17;;;9.28;100.00
70971;BME280;58632;51.718;19.446;2023-03-31T02:18:56;98550.71;;;9.32;100.00
70971;BME280;58632;51.718;19.446;2023-03-31T02:21:30;98551.33;;;9.38;100.00
70971;BME280;58632;51.718;19.446;2023-03-31T02:23:56;98547.92;;;9.41;100.00
70971;BME280;58632;51.718;19.446;2023-03-31T02:26:23;98549.01;;;9.46;100.00
70971;BME280;58632;51.718;19.446;2023-03-31T02:28:53;98547.87;;;9.47;100.00
70971;BME280;58632;51.718;19.446;2023-03-31T02:31:24;98552.02;;;9.47;100.00
70971;BME280;58632;51.718;19.446;2023-03-31T02:34:06;98547.59;;;9.46;100.00
70971;BME280;58632;51.718;19.446;2023-03-31T02:36:32;98546.98;;;9.44;100.00
70971;BME280;58632;51.718;19.446;2023-03-31T02:39:07;98544.23;;;9.43;100.00
70971;BME280;58632;51.718;19.446;2023-03-31T02:41:33;98538.79;;;9.43;100.00
70971;BME280;58632;51.718;19.446;2023-03-31T02:43:59;98536.78;;;9.42;100.00
70971;BME280;58632;51.718;19.446;2023-03-31T02:46:25;98535.77;;;9.42;100.00
70971;BME280;58632;51.718;19.446;2023-03-31T02:48:52;98539.00;;;9.43;100.00
70971;BME280;58632;51.718;19.446;2023-03-31T03:04:36;98537.65;;;9.47;100.00
70971;BME280;58632;51.718;19.446;2023-03-31T03:07:07;98534.67;;;9.45;100.00
70971;BME280;58632;51.718;19.446;2023-03-31T03:10:24;98537.26;;;9.45;100.00
70971;BME280;58632;51.718;19.446;2023-03-31T03:12:28;98533.67;;;9.42;100.00
70971;BME280;58632;51.718;19.446;2023-03-31T03:15:02;98535.10;;;9.43;100.00
70971;BME280;58632;51.718;19.446;2023-03-31T03:17:34;98534.16;;;9.46;100.00
70971;BME280;58632;51.718;19.446;2023-03-31T03:20:02;98534.52;;;9.47;100.00
70971;BME280;58632;51.718;19.446;2023-03-31T03:22:37;98534.50;;;9.44;100.00
70971;BME280;58632;51.718;19.446;2023-03-31T03:25:04;98537.94;;;9.44;100.00
70971;BME280;58632;51.718;19.446;2023-03-31T03:27:30;98538.95;;;9.47;100.00
70971;BME280;58632;51.718;19.446;2023-03-31T03:29:57;98539.58;;;9.47;100.00
70971;BME280;58632;51.718;19.446;2023-03-31T03:32:23;98538.88;;;9.44;100.00
70971;BME280;58632;51.718;19.446;2023-03-31T03:34:48;98548.73;;;9.42;100.00
70971;BME280;58632;51.718;19.446;2023-03-31T03:37:14;98551.34;;;9.41;100.00
70971;BME280;58632;51.718;19.446;2023-03-31T03:39:39;98549.66;;;9.37;100.00
70971;BME280;58632;51.718;19.446;2023-03-31T03:42:05;98552.89;;;9.32;100.00
70971;BME280;58632;51.718;19.446;2023-03-31T03:44:31;98551.31;;;9.29;100.00
70971;BME280;58632;51.718;19.446;2023-03-31T03:46:56;98548.80;;;9.28;100.00
70971;BME280;58632;51.718;19.446;2023-03-31T03:49:21;98547.98;;;9.27;100.00
70971;BME280;58632;51.718;19.446;2023-03-31T03:51:47;98550.23;;;9.24;100.00
70971;BME280;58632;51.718;19.446;2023-03-31T03:54:13;98553.61;;;9.23;100.00
70971;BME280;58632;51.718;19.446;2023-03-31T03:56:39;98553.66;;;9.22;100.00
70971;BME280;58632;51.718;19.446;2023-03-31T03:59:04;98549.41;;;9.18;100.00
70971;BME280;58632;51.718;19.446;2023-03-31T04:01:30;98546.92;;;9.19;100.00
70971;BME280;58632;51.718;19.446;2023-03-31T04:03:55;98543.79;;;9.18;100.00
70971;BME280;58632;51.718;19.446;2023-03-31T04:06:21;98542.11;;;9.14;100.00
70971;BME280;58632;51.718;19.446;2023-03-31T04:08:47;98538.72;;;9.06;100.00
70971;BME280;58632;51.718;19.446;2023-03-31T04:11:14;98539.59;;;8.99;100.00
70971;BME280;58632;51.718;19.446;2023-03-31T04:13:41;98540.27;;;8.90;100.00
70971;BME280;58632;51.718;19.446;2023-03-31T04:16:07;98542.30;;;8.90;100.00
70971;BME280;58632;51.718;19.446;2023-03-31T04:18:32;98543.14;;;8.90;100.00
70971;BME280;58632;51.718;19.446;2023-03-31T04:21:02;98544.14;;;8.87;100.00
70971;BME280;58632;51.718;19.446;2023-03-31T04:23:35;98540.48;;;8.88;100.00
70971;BME280;58632;51.718;19.446;2023-03-31T04:26:09;98541.02;;;8.92;100.00
70971;BME280;58632;51.718;19.446;2023-03-31T04:28:35;98535.58;;;8.90;100.00
70971;BME280;58632;51.718;19.446;2023-03-31T04:31:02;98529.02;;;8.85;100.00
70971;BME280;58632;51.718;19.446;2023-03-31T04:33:30;98527.27;;;8.79;100.00
70971;BME280;58632;51.718;19.446;2023-03-31T04:35:58;98526.02;;;8.79;100.00
70971;BME280;58632;51.718;19.446;2023-03-31T04:38:31;98527.56;;;8.77;100.00
70971;BME280;58632;51.718;19.446;2023-03-31T04:40:58;98521.25;;;8.72;100.00
70971;BME280;58632;51.718;19.446;2023-03-31T04:43:23;98515.76;;;8.68;100.00
70971;BME280;58632;51.718;19.446;2023-03-31T04:45:49;98515.17;;;8.69;100.00
70971;BME280;58632;51.718;19.446;2023-03-31T04:48:16;98513.13;;;8.71;100.00
70971;BME280;58632;51.718;19.446;2023-03-31T04:50:41;98515.80;;;8.74;100.00
70971;BME280;58632;51.718;19.446;2023-03-31T04:53:07;98512.23;;;8.79;100.00
70971;BME280;58632;51.718;19.446;2023-03-31T04:55:33;98511.00;;;8.80;100.00
70971;BME280;58632;51.718;19.446;2023-03-31T04:57:59;98512.70;;;8.82;100.00
70971;BME280;58632;51.718;19.446;2023-03-31T05:00:25;98511.42;;;8.88;100.00
70971;BME280;58632;51.718;19.446;2023-03-31T05:02:51;98514.60;;;8.93;100.00
70971;BME280;58632;51.718;19.446;2023-03-31T05:05:16;98510.08;;;8.93;100.00
70971;BME280;58632;51.718;19.446;2023-03-31T05:07:42;98508.02;;;8.94;100.00
70971;BME280;58632;51.718;19.446;2023-03-31T05:10:07;98505.85;;;8.90;100.00
70971;BME280;58632;51.718;19.446;2023-03-31T05:12:36;98503.27;;;8.82;100.00
70971;BME280;58632;51.718;19.446;2023-03-31T05:15:05;98494.14;;;8.79;100.00
70971;BME280;58632;51.718;19.446;2023-03-31T05:17:32;98490.23;;;8.77;100.00
70971;BME280;58632;51.718;19.446;2023-03-31T05:19:58;98491.52;;;8.76;100.00
70971;BME280;58632;51.718;19.446;2023-03-31T05:22:24;98488.70;;;8.75;100.00
70971;BME280;58632;51.718;19.446;2023-03-31T05:24:49;98483.96;;;8.74;100.00
70971;BME280;58632;51.718;19.446;2023-03-31T05:27:15;98491.19;;;8.75;100.00
70971;BME280;58632;51.718;19.446;2023-03-31T05:29:41;98489.81;;;8.76;100.00
70971;BME280;58632;51.718;19.446;2023-03-31T05:32:06;98489.91;;;8.79;100.00
70971;BME280;58632;51.718;19.446;2023-03-31T05:34:32;98492.38;;;8.83;100.00
70971;BME280;58632;51.718;19.446;2023-03-31T05:36:57;98496.71;;;8.87;100.00
70971;BME280;58632;51.718;19.446;2023-03-31T05:39:23;98492.64;;;8.86;100.00
70971;BME280;58632;51.718;19.446;2023-03-31T05:41:49;98497.02;;;8.87;100.00
70971;BME280;58632;51.718;19.446;2023-03-31T05:44:14;98497.63;;;8.89;100.00
70971;BME280;58632;51.718;19.446;2023-03-31T05:46:40;98498.89;;;8.89;100.00
70971;BME280;58632;51.718;19.446;2023-03-31T05:49:06;98499.75;;;8.92;100.00
70971;BME280;58632;51.718;19.446;2023-03-31T05:51:32;98498.52;;;8.95;100.00
70971;BME280;58632;51.718;19.446;2023-03-31T05:53:58;98493.61;;;8.98;100.00
70971;BME280;58632;51.718;19.446;2023-03-31T05:56:23;98489.36;;;9.02;100.00
70971;BME280;58632;51.718;19.446;2023-03-31T05:58:52;98481.48;;;9.12;100.00
70971;BME280;58632;51.718;19.446;2023-03-31T06:01:18;98474.02;;;9.21;100.00
70971;BME280;58632;51.718;19.446;2023-03-31T06:03:44;98477.13;;;9.28;100.00
70971;BME280;58632;51.718;19.446;2023-03-31T06:06:10;98476.30;;;9.35;100.00
70971;BME280;58632;51.718;19.446;2023-03-31T06:08:39;98473.27;;;9.43;100.00
70971;BME280;58632;51.718;19.446;2023-03-31T06:11:08;98474.02;;;9.52;100.00
70971;BME280;58632;51.718;19.446;2023-03-31T06:13:35;98469.71;;;9.66;100.00
70971;BME280;58632;51.718;19.446;2023-03-31T06:16:01;98469.29;;;9.73;100.00
70971;BME280;58632;51.718;19.446;2023-03-31T06:18:27;98471.18;;;9.74;100.00
70971;BME280;58632;51.718;19.446;2023-03-31T06:20:54;98465.02;;;9.78;100.00
70971;BME280;58632;51.718;19.446;2023-03-31T06:23:20;98464.95;;;9.86;100.00
70971;BME280;58632;51.718;19.446;2023-03-31T06:25:45;98463.30;;;9.91;100.00
70971;BME280;58632;51.718;19.446;2023-03-31T06:28:11;98463.67;;;9.94;100.00
70971;BME280;58632;51.718;19.446;2023-03-31T06:30:36;98461.91;;;9.98;100.00
70971;BME280;58632;51.718;19.446;2023-03-31T06:33:02;98465.35;;;10.01;100.00
70971;BME280;58632;51.718;19.446;2023-03-31T06:35:27;98466.52;;;10.07;100.00
70971;BME280;58632;51.718;19.446;2023-03-31T06:37:53;98464.58;;;10.08;100.00
70971;BME280;58632;51.718;19.446;2023-03-31T06:40:18;98467.50;;;10.15;100.00
70971;BME280;58632;51.718;19.446;2023-03-31T06:42:44;98468.95;;;10.25;100.00
70971;BME280;58632;51.718;19.446;2023-03-31T06:45:10;98466.61;;;10.34;100.00
70971;BME280;58632;51.718;19.446;2023-03-31T06:47:35;98461.70;;;10.43;100.00
70971;BME280;58632;51.718;19.446;2023-03-31T06:50:06;98459.11;;;10.56;100.00
70971;BME280;58632;51.718;19.446;2023-03-31T06:52:32;98459.20;;;10.70;100.00
70971;BME280;58632;51.718;19.446;2023-03-31T06:54:57;98460.50;;;10.82;100.00
70971;BME280;58632;51.718;19.446;2023-03-31T06:57:25;98461.16;;;10.90;100.00
70971;BME280;58632;51.718;19.446;2023-03-31T06:59:51;98458.41;;;10.99;100.00
70971;BME280;58632;51.718;19.446;2023-03-31T07:02:17;98461.53;;;11.07;100.00
70971;BME280;58632;51.718;19.446;2023-03-31T07:04:43;98458.48;;;11.14;100.00
70971;BME280;58632;51.718;19.446;2023-03-31T07:07:08;98458.64;;;11.20;100.00
70971;BME280;58632;51.718;19.446;2023-03-31T07:09:34;98464.29;;;11.29;100.00
70971;BME280;58632;51.718;19.446;2023-03-31T07:11:59;98460.84;;;11.39;100.00
70971;BME280;58632;51.718;19.446;2023-03-31T07:14:25;98460.47;;;11.44;100.00
70971;BME280;58632;51.718;19.446;2023-03-31T07:16:51;98459.79;;;11.49;100.00
70971;BME280;58632;51.718;19.446;2023-03-31T07:19:16;98462.35;;;11.56;100.00
70971;BME280;58632;51.718;19.446;2023-03-31T07:21:43;98461.45;;;11.65;100.00
70971;BME280;58632;51.718;19.446;2023-03-31T07:24:09;98462.04;;;11.75;100.00
70971;BME280;58632;51.718;19.446;2023-03-31T07:26:34;98458.09;;;11.89;100.00
70971;BME280;58632;51.718;19.446;2023-03-31T07:29:00;98455.77;;;11.99;100.00
70971;BME280;58632;51.718;19.446;2023-03-31T07:31:25;98450.62;;;12.04;100.00
70971;BME280;58632;51.718;19.446;2023-03-31T07:33:51;98454.82;;;12.19;100.00
70971;BME280;58632;51.718;19.446;2023-03-31T07:36:16;98448.97;;;12.35;100.00
70971;BME280;58632;51.718;19.446;2023-03-31T07:38:43;98442.97;;;12.47;100.00
70971;BME280;58632;51.718;19.446;2023-03-31T07:41:13;98442.95;;;12.60;100.00
70971;BME280;58632;51.718;19.446;2023-03-31T07:43:39;98436.73;;;12.79;100.00
70971;BME280;58632;51.718;19.446;2023-03-31T07:46:05;98430.11;;;12.93;100.00
70971;BME280;58632;51.718;19.446;2023-03-31T07:48:33;98432.46;;;13.10;100.00
70971;BME280;58632;51.718;19.446;2023-03-31T07:50:58;98430.95;;;13.16;100.00
70971;BME280;58632;51.718;19.446;2023-03-31T07:53:24;98422.41;;;13.22;100.00
70971;BME280;58632;51.718;19.446;2023-03-31T07:55:49;98412.75;;;13.27;100.00
70971;BME280;58632;51.718;19.446;2023-03-31T07:58:15;98413.48;;;13.46;100.00
70971;BME280;58632;51.718;19.446;2023-03-31T08:00:41;98418.19;;;13.73;100.00
70971;BME280;58632;51.718;19.446;2023-03-31T08:03:07;98421.02;;;13.96;100.00
70971;BME280;58632;51.718;19.446;2023-03-31T08:05:32;98416.38;;;14.20;100.00
70971;BME280;58632;51.718;19.446;2023-03-31T08:07:57;98410.28;;;14.42;100.00
70971;BME280;58632;51.718;19.446;2023-03-31T08:10:24;98406.63;;;14.55;100.00
70971;BME280;58632;51.718;19.446;2023-03-31T08:12:49;98407.04;;;14.55;100.00
70971;BME280;58632;51.718;19.446;2023-03-31T08:15:15;98404.14;;;14.58;100.00
70971;BME280;58632;51.718;19.446;2023-03-31T08:17:41;98400.39;;;14.60;100.00
70971;BME280;58632;51.718;19.446;2023-03-31T08:20:06;98399.04;;;14.60;100.00
70971;BME280;58632;51.718;19.446;2023-03-31T08:22:37;98397.10;;;14.63;100.00
70971;BME280;58632;51.718;19.446;2023-03-31T08:25:04;98395.61;;;14.65;100.00
70971;BME280;58632;51.718;19.446;2023-03-31T08:27:33;98391.42;;;14.73;100.00
70971;BME280;58632;51.718;19.446;2023-03-31T08:29:59;98393.23;;;14.75;100.00
70971;BME280;58632;51.718;19.446;2023-03-31T08:32:32;98393.86;;;14.85;100.00
70971;BME280;58632;51.718;19.446;2023-03-31T08:34:58;98391.98;;;14.99;100.00
70971;BME280;58632;51.718;19.446;2023-03-31T08:37:24;98386.42;;;15.08;100.00
70971;BME280;58632;51.718;19.446;2023-03-31T08:39:50;98384.84;;;15.19;100.00
70971;BME280;58632;51.718;19.446;2023-03-31T08:42:19;98379.11;;;15.26;100.00
70971;BME280;58632;51.718;19.446;2023-03-31T08:47:23;98379.05;;;15.52;100.00
70971;BME280;58632;51.718;19.446;2023-03-31T08:49:52;98382.61;;;15.73;100.00
70971;BME280;58632;51.718;19.446;2023-03-31T08:52:21;98380.58;;;15.85;100.00
70971;BME280;58632;51.718;19.446;2023-03-31T08:54:48;98380.13;;;15.94;100.00
70971;BME280;58632;51.718;19.446;2023-03-31T08:57:17;98377.39;;;16.12;100.00
70971;BME280;58632;51.718;19.446;2023-03-31T08:59:45;98374.48;;;16.14;100.00
70971;BME280;58632;51.718;19.446;2023-03-31T09:02:15;98368.64;;;16.17;100.00
70971;BME280;58632;51.718;19.446;2023-03-31T09:12:22;98364.61;;;16.43;100.00
70971;BME280;58632;51.718;19.446;2023-03-31T09:14:59;98362.47;;;16.53;100.00
70971;BME280;58632;51.718;19.446;2023-03-31T09:17:26;98358.52;;;16.62;100.00
70971;BME280;58632;51.718;19.446;2023-03-31T09:22:34;98353.92;;;16.88;100.00
70971;BME280;58632;51.718;19.446;2023-03-31T09:25:15;98343.64;;;16.87;100.00
70971;BME280;58632;51.718;19.446;2023-03-31T09:27:42;98344.45;;;16.84;100.00
70971;BME280;58632;51.718;19.446;2023-03-31T09:30:25;98338.59;;;16.77;100.00
70971;BME280;58632;51.718;19.446;2023-03-31T09:32:52;98338.69;;;16.82;100.00
70971;BME280;58632;51.718;19.446;2023-03-31T09:35:20;98333.87;;;16.81;100.00
70971;BME280;58632;51.718;19.446;2023-03-31T09:37:47;98332.74;;;16.86;100.00
70971;BME280;58632;51.718;19.446;2023-03-31T09:40:15;98335.39;;;17.05;100.00
70971;BME280;58632;51.718;19.446;2023-03-31T09:42:41;98330.08;;;17.04;100.00
70971;BME280;58632;51.718;19.446;2023-03-31T09:45:12;98328.35;;;17.01;100.00
70971;BME280;58632;51.718;19.446;2023-03-31T09:47:40;98326.85;;;17.01;100.00
70971;BME280;58632;51.718;19.446;2023-03-31T09:50:07;98320.90;;;17.09;100.00
70971;BME280;58632;51.718;19.446;2023-03-31T09:52:39;98317.63;;;17.17;100.00
70971;BME280;58632;51.718;19.446;2023-03-31T09:55:14;98314.93;;;17.19;100.00
70971;BME280;58632;51.718;19.446;2023-03-31T09:57:42;98309.00;;;17.22;100.00
70971;BME280;58632;51.718;19.446;2023-03-31T10:02:38;98303.16;;;17.63;100.00
70971;BME280;58632;51.718;19.446;2023-03-31T10:05:06;98300.17;;;17.72;100.00
70971;BME280;58632;51.718;19.446;2023-03-31T10:07:42;98292.46;;;17.92;100.00
70971;BME280;58632;51.718;19.446;2023-03-31T10:10:08;98287.04;;;18.08;100.00
70971;BME280;58632;51.718;19.446;2023-03-31T10:12:35;98283.55;;;18.27;100.00
70971;BME280;58632;51.718;19.446;2023-03-31T10:15:13;98277.54;;;18.42;100.00
70971;BME280;58632;51.718;19.446;2023-03-31T10:17:43;98272.94;;;18.66;100.00
70971;BME280;58632;51.718;19.446;2023-03-31T10:20:30;98272.57;;;18.94;100.00
70971;BME280;58632;51.718;19.446;2023-03-31T10:22:58;98265.05;;;19.06;98.77
70971;BME280;58632;51.718;19.446;2023-03-31T10:25:27;98262.32;;;19.08;96.83
70971;BME280;58632;51.718;19.446;2023-03-31T10:27:53;98252.14;;;19.11;93.69
70971;BME280;58632;51.718;19.446;2023-03-31T10:30:20;98249.77;;;19.17;96.07
70971;BME280;58632;51.718;19.446;2023-03-31T10:32:47;98250.30;;;19.40;94.39
70971;BME280;58632;51.718;19.446;2023-03-31T10:37:38;98244.49;;;19.42;91.39
70971;BME280;58632;51.718;19.446;2023-03-31T10:40:12;98237.27;;;19.25;94.67
70971;BME280;58632;51.718;19.446;2023-03-31T10:42:38;98232.50;;;19.27;95.05
70971;BME280;58632;51.718;19.446;2023-03-31T10:45:41;98230.48;;;19.34;90.86
70971;BME280;58632;51.718;19.446;2023-03-31T10:47:57;98223.66;;;19.35;93.32
70971;BME280;58632;51.718;19.446;2023-03-31T10:50:32;98224.84;;;19.36;89.38
70971;BME280;58632;51.718;19.446;2023-03-31T10:53:06;98222.12;;;19.27;88.22
70971;BME280;58632;51.718;19.446;2023-03-31T10:55:38;98217.19;;;19.28;88.63
70971;BME280;58632;51.718;19.446;2023-03-31T10:58:15;98220.13;;;19.27;89.39
70971;BME280;58632;51.718;19.446;2023-03-31T11:07:05;98211.48;;;19.32;87.37
70971;BME280;58632;51.718;19.446;2023-03-31T11:09:28;98209.21;;;19.47;86.17
70971;BME280;58632;51.718;19.446;2023-03-31T11:12:00;98204.66;;;19.64;86.72
70971;BME280;58632;51.718;19.446;2023-03-31T11:14:32;98197.86;;;19.75;83.95
70971;BME280;58632;51.718;19.446;2023-03-31T11:17:11;98191.66;;;19.85;84.92
70971;BME280;58632;51.718;19.446;2023-03-31T11:31:53;98171.08;;;19.77;78.20
70971;BME280;58632;51.718;19.446;2023-03-31T11:34:26;98163.24;;;19.80;78.09
70971;BME280;58632;51.718;19.446;2023-03-31T11:39:41;98162.22;;;19.64;78.89
70971;BME280;58632;51.718;19.446;2023-03-31T11:42:14;98159.35;;;19.55;79.99
70971;BME280;58632;51.718;19.446;2023-03-31T11:44:42;98156.09;;;19.40;77.97
70971;BME280;58632;51.718;19.446;2023-03-31T11:47:15;98150.03;;;19.22;76.92
70971;BME280;58632;51.718;19.446;2023-03-31T11:49:53;98145.96;;;19.08;77.37
70971;BME280;58632;51.718;19.446;2023-03-31T11:52:30;98139.94;;;18.98;77.45
70971;BME280;58632;51.718;19.446;2023-03-31T11:55:17;98140.05;;;18.90;81.32
70971;BME280;58632;51.718;19.446;2023-03-31T11:57:47;98131.11;;;18.84;82.96
70971;BME280;58632;51.718;19.446;2023-03-31T12:05:06;98113.96;;;18.41;80.36
70971;BME280;58632;51.718;19.446;2023-03-31T12:07:35;98109.27;;;18.25;80.34
70971;BME280;58632;51.718;19.446;2023-03-31T12:10:10;98109.51;;;18.04;80.36
70971;BME280;58632;51.718;19.446;2023-03-31T12:12:43;98110.07;;;17.70;82.08
70971;BME280;58632;51.718;19.446;2023-03-31T12:15:28;98108.77;;;17.46;84.97
70971;BME280;58632;51.718;19.446;2023-03-31T12:17:59;98102.34;;;17.21;88.79
70971;BME280;58632;51.718;19.446;2023-03-31T12:20:31;98098.96;;;17.09;92.55
70971;BME280;58632;51.718;19.446;2023-03-31T12:22:57;98096.69;;;16.95;93.76
70971;BME280;58632;51.718;19.446;2023-03-31T12:25:24;98089.73;;;16.86;94.67
70971;BME280;58632;51.718;19.446;2023-03-31T12:27:53;98084.06;;;16.79;93.93
70971;BME280;58632;51.718;19.446;2023-03-31T12:32:56;98075.02;;;16.46;95.03
70971;BME280;58632;51.718;19.446;2023-03-31T12:35:25;98074.73;;;16.23;95.34
70971;BME280;58632;51.718;19.446;2023-03-31T12:40:22;98072.11;;;15.78;98.43
70971;BME280;58632;51.718;19.446;2023-03-31T12:43:08;98066.38;;;15.70;100.00
70971;BME280;58632;51.718;19.446;2023-03-31T12:45:42;98060.77;;;15.61;100.00
70971;BME280;58632;51.718;19.446;2023-03-31T12:48:23;98058.02;;;15.58;100.00
70971;BME280;58632;51.718;19.446;2023-03-31T12:51:11;98054.70;;;15.64;100.00
70971;BME280;58632;51.718;19.446;2023-03-31T12:56:23;98049.83;;;15.93;100.00
70971;BME280;58632;51.718;19.446;2023-03-31T12:58:48;98043.42;;;16.17;100.00
70971;BME280;58632;51.718;19.446;2023-03-31T13:01:18;98035.96;;;16.42;100.00
70971;BME280;58632;51.718;19.446;2023-03-31T13:08:56;98026.66;;;17.37;98.33
70971;BME280;58632;51.718;19.446;2023-03-31T13:14:11;98016.21;;;17.98;94.17
70971;BME280;58632;51.718;19.446;2023-03-31T13:16:38;98013.02;;;18.30;92.97
70971;BME280;58632;51.718;19.446;2023-03-31T13:19:03;98007.30;;;18.54;90.79
70971;BME280;58632;51.718;19.446;2023-03-31T13:21:30;97996.71;;;18.74;88.04
70971;BME280;58632;51.718;19.446;2023-03-31T13:23:59;97994.02;;;18.73;82.79
70971;BME280;58632;51.718;19.446;2023-03-31T13:34:26;97972.48;;;18.79;79.97
70971;BME280;58632;51.718;19.446;2023-03-31T13:37:41;97969.22;;;18.80;72.68
70971;BME280;58632;51.718;19.446;2023-03-31T13:44:56;97951.81;;;18.52;71.47
70971;BME280;58632;51.718;19.446;2023-03-31T13:52:26;97942.27;;;18.50;66.13
70971;BME280;58632;51.718;19.446;2023-03-31T13:55:14;97937.20;;;18.55;65.60
70971;BME280;58632;51.718;19.446;2023-03-31T14:05:32;97920.36;;;18.49;62.86
70971;BME280;58632;51.718;19.446;2023-03-31T14:08:13;97917.52;;;18.43;62.26
70971;BME280;58632;51.718;19.446;2023-03-31T14:10:43;97913.69;;;18.35;64.51
70971;BME280;58632;51.718;19.446;2023-03-31T14:13:12;97907.23;;;18.32;64.63
70971;BME280;58632;51.718;19.446;2023-03-31T14:15:48;97903.22;;;18.21;65.12
70971;BME280;58632;51.718;19.446;2023-03-31T14:18:16;97902.22;;;18.02;66.33
70971;BME280;58632;51.718;19.446;2023-03-31T14:20:50;97898.86;;;17.88;67.67
70971;BME280;58632;51.718;19.446;2023-03-31T14:26:05;97887.94;;;17.51;69.78
70971;BME280;58632;51.718;19.446;2023-03-31T14:28:35;97884.70;;;17.30;72.78
70971;BME280;58632;51.718;19.446;2023-03-31T14:31:17;97886.89;;;17.04;73.70
70971;BME280;58632;51.718;19.446;2023-03-31T14:34:06;97884.36;;;16.79;75.23
70971;BME280;58632;51.718;19.446;2023-03-31T14:39:07;97917.11;;;16.06;92.66
70971;BME280;58632;51.718;19.446;2023-03-31T14:41:34;97915.29;;;15.59;97.07
70971;BME280;58632;51.718;19.446;2023-03-31T14:44:03;97905.49;;;15.18;100.00
70971;BME280;58632;51.718;19.446;2023-03-31T14:46:31;97888.89;;;14.84;100.00
70971;BME280;58632;51.718;19.446;2023-03-31T14:48:57;97881.90;;;14.69;100.00
70971;BME280;58632;51.718;19.446;2023-03-31T14:51:28;97875.21;;;14.61;100.00
70971;BME280;58632;51.718;19.446;2023-03-31T14:53:55;97875.23;;;14.58;100.00
70971;BME280;58632;51.718;19.446;2023-03-31T14:56:23;97883.09;;;14.63;100.00
70971;BME280;58632;51.718;19.446;2023-03-31T14:58:52;97876.32;;;14.68;100.00
70971;BME280;58632;51.718;19.446;2023-03-31T15:01:18;97875.21;;;14.65;100.00